Time;durP1;ratioP1;P1;durP2;ratioP2;P2;SDS_P1;SDS_P2;PMS_P1;PMS_P2;Temp;Humidity;BMP_temperature;BMP_pressure;BME280_temperature;BME280_humidity;BME280_pressure;Samples;Min_cycle;Max_cycle;Signal;HPM_P1;HPM_P2
2022/08/03 00:01:39;;;;;;;3.28;2.97;;;16.20;99.90;;;;;;5003546;28;20469;-94
2022/08/03 00:04:07;;;;;;;4.07;2.95;;;16.10;99.90;;;;;;5014201;28;20116;-93
2022/08/03 00:06:33;;;;;;;5.22;3.08;;;16.10;99.90;;;;;;5014954;28;20388;-94
2022/08/03 00:08:59;;;;;;;3.88;3.17;;;16.00;99.90;;;;;;5003869;28;20065;-95
2022/08/03 00:11:25;;;;;;;3.47;3.17;;;16.00;99.90;;;;;;5017013;28;20033;-94
2022/08/03 00:14:22;;;;;;;4.53;3.20;;;16.00;99.90;;;;;;5002840;28;20486;-94
2022/08/03 00:16:47;;;;;;;3.70;3.30;;;16.00;99.90;;;;;;5027143;28;20026;-94
2022/08/03 00:19:13;;;;;;;3.50;3.10;;;16.00;99.90;;;;;;5019022;28;20033;-95
2022/08/03 00:21:39;;;;;;;4.00;3.55;;;16.00;99.90;;;;;;5029992;28;20481;-94
2022/08/03 00:24:05;;;;;;;4.00;3.40;;;15.90;99.90;;;;;;5027319;28;20030;-93
2022/08/03 00:26:31;;;;;;;5.90;3.17;;;15.90;99.90;;;;;;5008763;28;20531;-94
2022/08/03 00:28:56;;;;;;;4.18;3.08;;;15.90;99.90;;;;;;5004455;28;20128;-94
2022/08/03 00:31:22;;;;;;;4.30;3.47;;;15.80;99.90;;;;;;5019425;28;20072;-93
2022/08/03 00:33:48;;;;;;;3.78;2.95;;;15.80;99.90;;;;;;5018971;28;20053;-92
2022/08/03 00:36:13;;;;;;;3.38;3.08;;;15.80;99.90;;;;;;5026389;28;20014;-93
2022/08/03 00:38:39;;;;;;;4.70;3.53;;;15.80;99.90;;;;;;5016491;28;20029;-94
2022/08/03 00:41:05;;;;;;;3.72;3.42;;;15.80;99.90;;;;;;5009717;28;20021;-94
2022/08/03 00:43:30;;;;;;;6.85;3.38;;;15.80;99.90;;;;;;5010817;28;20036;-94
2022/08/03 00:45:56;;;;;;;4.88;2.92;;;15.80;99.90;;;;;;5017887;28;20446;-94
2022/08/03 00:48:22;;;;;;;3.80;3.38;;;15.70;99.90;;;;;;5017857;28;20026;-95
2022/08/03 00:50:48;;;;;;;5.35;3.67;;;15.70;99.90;;;;;;5014413;28;20390;-94
2022/08/03 00:53:14;;;;;;;3.33;2.88;;;15.80;99.90;;;;;;5009787;28;20026;-93
2022/08/03 00:55:42;;;;;;;3.50;3.13;;;15.80;99.90;;;;;;5017314;28;20057;-94
2022/08/03 00:58:09;;;;;;;4.78;2.90;;;15.80;99.90;;;;;;5008002;28;20025;-93
2022/08/03 01:00:37;;;;;;;5.03;2.78;;;15.70;99.90;;;;;;5029015;28;20056;-94
2022/08/03 01:03:04;;;;;;;6.10;3.60;;;15.70;99.90;;;;;;5008728;28;20034;-94
2022/08/03 01:05:44;;;;;;;3.75;3.35;;;15.70;99.90;;;;;;5030302;28;20064;-94
2022/08/03 01:08:35;;;;;;;3.95;3.25;;;15.80;99.90;;;;;;5013002;28;20030;-94
2022/08/03 01:11:22;;;;;;;;;;;15.70;99.90;;;;;;5019893;28;20037;-94
2022/08/03 01:14:23;;;;;;;5.80;2.85;;;15.70;99.90;;;;;;5008501;28;19913;-95
2022/08/03 01:17:23;;;;;;;7.47;3.20;;;15.70;99.90;;;;;;4998991;28;20472;-94
2022/08/03 01:19:51;;;;;;;3.80;3.40;;;15.70;99.90;;;;;;5011598;28;20089;-93
2022/08/03 01:22:54;;;;;;;3.80;3.42;;;15.70;99.90;;;;;;5010689;28;20068;-94
2022/08/03 01:25:32;;;;;;;3.67;3.10;;;15.70;99.90;;;;;;5004924;28;20026;-93
2022/08/03 01:28:22;;;;;;;4.28;3.22;;;15.70;99.90;;;;;;5009560;28;20033;-94
2022/08/03 01:30:51;;;;;;;3.40;3.10;;;15.70;99.90;;;;;;5015971;28;20033;-94
2022/08/03 01:33:22;;;;;;;7.35;3.00;;;15.70;99.90;;;;;;5002681;28;20041;-93
2022/08/03 01:36:04;;;;;;;4.40;3.13;;;15.70;99.90;;;;;;5008144;28;20144;-94
2022/08/03 01:38:41;;;;;;;3.92;3.10;;;15.80;99.90;;;;;;5029268;28;20068;-94
2022/08/03 01:41:10;;;;;;;3.17;2.83;;;15.80;99.90;;;;;;5004069;28;20025;-94
2022/08/03 01:43:38;;;;;;;3.22;2.92;;;15.80;99.90;;;;;;5010822;28;20017;-93
2022/08/03 01:46:05;;;;;;;3.05;2.70;;;15.80;99.90;;;;;;5012687;28;20053;-93
2022/08/03 01:48:32;;;;;;;3.65;3.00;;;15.80;99.90;;;;;;5005212;28;20037;-93
2022/08/03 01:50:59;;;;;;;3.83;2.92;;;15.80;99.90;;;;;;5004855;28;20056;-94
2022/08/03 01:53:25;;;;;;;2.80;2.60;;;15.80;99.90;;;;;;5014766;28;20367;-95
2022/08/03 01:55:54;;;;;;;3.05;2.75;;;15.90;99.90;;;;;;5022122;28;20041;-95
2022/08/03 01:58:23;;;;;;;3.20;2.45;;;15.80;99.90;;;;;;5013779;28;20025;-94
2022/08/03 02:00:50;;;;;;;2.50;2.30;;;15.90;99.90;;;;;;5035581;28;20033;-95
2022/08/03 02:03:18;;;;;;;2.97;2.65;;;15.90;99.90;;;;;;5030430;28;20124;-95
2022/08/03 02:05:45;;;;;;;4.03;2.60;;;16.00;99.90;;;;;;5035965;28;20039;-95
2022/08/03 02:08:14;;;;;;;2.75;2.40;;;16.10;99.90;;;;;;5019651;28;20065;-93
2022/08/03 02:10:41;;;;;;;2.50;2.30;;;16.20;99.90;;;;;;5023889;28;20480;-94
2022/08/03 02:13:09;;;;;;;3.22;2.53;;;16.30;99.90;;;;;;5027267;28;20065;-94
2022/08/03 02:15:36;;;;;;;5.32;2.67;;;16.30;99.90;;;;;;5013562;28;20913;-94
2022/08/03 02:18:05;;;;;;;2.85;2.30;;;16.30;99.90;;;;;;5022597;28;20028;-95
2022/08/03 02:20:35;;;;;;;3.83;2.65;;;16.30;99.90;;;;;;5013673;28;20032;-94
2022/08/03 02:23:00;;;;;;;4.40;2.50;;;16.30;99.90;;;;;;5021076;28;20117;-94
2022/08/03 02:25:29;;;;;;;2.97;2.38;;;16.30;99.90;;;;;;5009672;28;20064;-94
2022/08/03 02:28:00;;;;;;;5.00;2.53;;;16.40;99.90;;;;;;5003006;28;20113;-94
2022/08/03 02:30:29;;;;;;;;;;;16.40;99.90;;;;;;5016804;28;20041;-94
2022/08/03 02:32:58;;;;;;;3.33;2.60;;;16.50;99.90;;;;;;5021423;28;20016;-94
2022/08/03 02:35:27;;;;;;;3.10;2.80;;;16.50;99.90;;;;;;5018537;28;20072;-95
2022/08/03 02:38:02;;;;;;;3.03;2.45;;;16.50;99.90;;;;;;5015711;28;20377;-94
2022/08/03 02:40:31;;;;;;;2.60;2.40;;;16.50;99.90;;;;;;5017443;28;20026;-94
2022/08/03 02:43:06;;;;;;;2.88;2.25;;;16.50;99.90;;;;;;5014748;28;20448;-94
2022/08/03 02:46:18;;;;;;;2.55;2.33;;;16.60;99.90;;;;;;5016665;28;20201;-94
2022/08/03 02:48:47;;;;;;;3.17;2.72;;;16.70;99.90;;;;;;5010683;28;20088;-94
2022/08/03 02:51:15;;;;;;;3.40;2.58;;;16.70;99.90;;;;;;5022383;28;20032;-94
2022/08/03 02:53:43;;;;;;;2.42;2.22;;;16.80;99.90;;;;;;5010524;28;20418;-94
2022/08/03 02:56:10;;;;;;;2.55;2.15;;;16.80;99.90;;;;;;5029518;28;20041;-93
2022/08/03 02:58:37;;;;;;;4.05;2.10;;;17.00;99.90;;;;;;5019566;28;20022;-94
2022/08/03 03:01:03;;;;;;;3.15;2.17;;;17.10;99.90;;;;;;5033878;28;20025;-94
2022/08/03 03:03:29;;;;;;;2.78;2.42;;;17.30;99.90;;;;;;5020199;28;20373;-95
2022/08/03 03:05:55;;;;;;;2.58;2.38;;;17.40;99.90;;;;;;5017946;28;20113;-94
2022/08/03 03:08:22;;;;;;;4.85;3.05;;;17.40;99.90;;;;;;5013586;28;20056;-93
2022/08/03 03:11:10;;;;;;;2.40;2.20;;;17.40;99.90;;;;;;5013808;28;20033;-94
2022/08/03 03:13:36;;;;;;;3.17;2.40;;;17.30;99.90;;;;;;5010128;28;20128;-93
2022/08/03 03:16:04;;;;;;;2.55;2.20;;;17.20;99.90;;;;;;5018359;28;20021;-94
2022/08/03 03:18:32;;;;;;;2.80;2.03;;;17.10;99.90;;;;;;5005170;28;20067;-93
2022/08/03 03:21:00;;;;;;;3.17;2.08;;;17.10;99.90;;;;;;5013289;28;20029;-94
2022/08/03 03:23:28;;;;;;;3.15;2.22;;;17.00;99.90;;;;;;5003313;28;20112;-94
2022/08/03 03:25:55;;;;;;;2.85;2.38;;;17.10;99.90;;;;;;5027505;28;20029;-94
2022/08/03 03:28:23;;;;;;;3.40;2.22;;;17.00;99.90;;;;;;5021459;28;20037;-95
2022/08/03 03:30:49;;;;;;;3.95;2.50;;;16.90;99.90;;;;;;5021500;28;20052;-94
2022/08/03 03:33:15;;;;;;;6.97;2.08;;;16.90;99.90;;;;;;5016774;28;20029;-94
2022/08/03 03:35:43;;;;;;;3.35;2.58;;;16.90;99.90;;;;;;5015739;28;20056;-94
2022/08/03 03:38:09;;;;;;;5.20;2.33;;;16.80;99.90;;;;;;5022410;28;20104;-94
2022/08/03 03:40:56;;;;;;;2.85;2.08;;;16.80;99.90;;;;;;5016480;28;20034;-93
2022/08/03 03:43:23;;;;;;;2.65;2.45;;;16.80;99.90;;;;;;5010186;28;20053;-95
2022/08/03 03:45:51;;;;;;;2.40;2.13;;;16.80;99.90;;;;;;5016070;28;20029;-94
2022/08/03 03:48:18;;;;;;;6.55;2.20;;;16.70;99.90;;;;;;5013218;28;20022;-93
2022/08/03 03:50:44;;;;;;;2.60;2.38;;;16.60;99.90;;;;;;5019841;28;20381;-94
2022/08/03 03:53:12;;;;;;;2.47;2.28;;;16.60;99.90;;;;;;5008896;28;20030;-93
2022/08/03 03:55:39;;;;;;;2.38;2.17;;;16.60;99.90;;;;;;5033658;28;20021;-93
2022/08/03 03:58:05;;;;;;;2.13;2.00;;;16.50;99.90;;;;;;5014802;28;20025;-94
2022/08/03 04:00:31;;;;;;;2.80;2.55;;;16.60;99.90;;;;;;5024557;28;20514;-90
2022/08/03 04:02:57;;;;;;;2.83;2.28;;;16.50;99.90;;;;;;5018925;28;20037;-90
2022/08/03 04:11:00;;;;;;;2.30;2.10;;;16.50;99.90;;;;;;5027903;28;20401;-90
2022/08/03 04:13:41;;;;;;;3.38;2.28;;;16.60;99.90;;;;;;5018970;28;20062;-90
2022/08/03 04:16:11;;;;;;;6.90;3.03;;;16.50;99.90;;;;;;5013147;28;20025;-90
2022/08/03 04:18:39;;;;;;;3.45;2.45;;;16.60;99.90;;;;;;5026210;28;20029;-90
2022/08/03 04:21:09;;;;;;;4.10;2.83;;;16.50;99.90;;;;;;5007445;28;20021;-91
2022/08/03 04:24:02;;;;;;;2.70;2.40;;;16.50;99.90;;;;;;5008383;28;20037;-90
2022/08/03 04:26:32;;;;;;;4.05;2.33;;;16.60;99.90;;;;;;5020882;28;20469;-89
2022/08/03 04:29:02;;;;;;;6.80;2.88;;;16.60;99.90;;;;;;5014768;28;20033;-90
2022/08/03 04:31:29;;;;;;;3.80;2.72;;;16.60;99.90;;;;;;5027228;28;20026;-90
2022/08/03 04:33:55;;;;;;;4.88;2.40;;;16.60;99.90;;;;;;5029199;28;20034;-90
2022/08/03 04:36:28;;;;;;;5.10;2.50;;;16.60;99.90;;;;;;5014238;28;20029;-90
2022/08/03 04:39:09;;;;;;;3.08;2.53;;;16.70;99.90;;;;;;5026607;28;20489;-90
2022/08/03 04:41:37;;;;;;;4.70;2.78;;;16.70;99.90;;;;;;5027446;28;20037;-90
2022/08/03 04:44:05;;;;;;;2.50;2.08;;;16.70;99.90;;;;;;5012954;28;20041;-89
2022/08/03 04:46:36;;;;;;;3.65;2.60;;;16.90;99.90;;;;;;5027742;28;20025;-90
2022/08/03 04:49:04;;;;;;;3.17;2.45;;;17.00;99.90;;;;;;5018838;28;20120;-90
2022/08/03 04:51:30;;;;;;;4.85;2.25;;;17.10;99.90;;;;;;5024963;28;20037;-90
2022/08/03 04:53:56;;;;;;;4.07;2.35;;;17.20;99.90;;;;;;5016504;28;20030;-89
2022/08/03 04:56:22;;;;;;;3.80;2.65;;;17.40;99.90;;;;;;5007030;28;20025;-90
2022/08/03 04:58:47;;;;;;;5.07;2.40;;;17.50;99.90;;;;;;5024410;28;20022;-91
2022/08/03 05:01:15;;;;;;;4.63;2.20;;;17.70;99.90;;;;;;5015334;28;20080;-91
2022/08/03 05:03:40;;;;;;;7.38;2.38;;;17.80;99.90;;;;;;5007620;28;20493;-90
2022/08/03 05:06:06;;;;;;;2.70;2.17;;;17.90;99.90;;;;;;5026074;28;20083;-90
2022/08/03 05:08:32;;;;;;;6.43;2.67;;;18.00;99.90;;;;;;5007818;28;20393;-91
2022/08/03 05:10:58;;;;;;;3.45;2.50;;;18.10;99.90;;;;;;5026658;28;20080;-90
2022/08/03 05:13:23;;;;;;;4.68;2.20;;;18.30;99.90;;;;;;5000116;28;20080;-92
2022/08/03 05:15:49;;;;;;;3.50;2.15;;;18.40;99.90;;;;;;5008888;28;20030;-91
2022/08/03 05:18:15;;;;;;;5.00;2.22;;;18.50;99.90;;;;;;5017116;28;20026;-92
2022/08/03 05:20:41;;;;;;;2.58;2.30;;;18.70;99.90;;;;;;5010249;28;20116;-90
2022/08/03 05:23:12;;;;;;;2.67;2.20;;;18.80;99.90;;;;;;5027629;28;20112;-91
2022/08/03 05:25:37;;;;;;;2.50;2.00;;;19.00;99.90;;;;;;5027128;28;20030;-91
2022/08/03 05:28:03;;;;;;;3.20;2.05;;;19.10;99.90;;;;;;5032964;28;20018;-91
2022/08/03 05:30:29;;;;;;;2.72;2.33;;;19.30;99.90;;;;;;5030430;28;20029;-91
2022/08/03 05:32:55;;;;;;;5.43;2.10;;;19.40;99.90;;;;;;5030292;28;20018;-90
2022/08/03 05:35:21;;;;;;;2.95;2.00;;;19.50;99.90;;;;;;5030588;28;20036;-90
2022/08/03 05:37:46;;;;;;;2.33;2.13;;;19.60;99.90;;;;;;5031589;28;20524;-91
2022/08/03 05:40:12;;;;;;;3.20;1.95;;;19.90;99.90;;;;;;5029125;28;20021;-90
2022/08/03 05:42:38;;;;;;;3.88;2.22;;;20.00;99.90;;;;;;5011407;28;20025;-90
2022/08/03 05:45:14;;;;;;;3.42;2.10;;;20.20;99.90;;;;;;5027534;28;20049;-91
2022/08/03 05:47:43;;;;;;;2.58;2.33;;;20.30;99.90;;;;;;5018097;28;20034;-90
2022/08/03 05:50:10;;;;;;;2.42;1.77;;;20.50;99.90;;;;;;5032769;28;20084;-90
2022/08/03 05:52:36;;;;;;;4.07;2.08;;;20.60;99.90;;;;;;5017506;28;20029;-91
2022/08/03 05:55:04;;;;;;;2.20;1.92;;;20.80;99.90;;;;;;5015101;28;20029;-91
2022/08/03 05:57:30;;;;;;;2.75;2.33;;;20.90;99.90;;;;;;5016904;28;20026;-91
2022/08/03 05:59:56;;;;;;;4.45;2.40;;;21.10;99.90;;;;;;5016365;28;20036;-90
2022/08/03 06:02:21;;;;;;;3.00;2.40;;;21.20;99.90;;;;;;5008511;28;20038;-90
2022/08/03 06:04:47;;;;;;;2.08;1.85;;;21.40;99.90;;;;;;5009570;28;20613;-90
2022/08/03 06:07:13;;;;;;;3.95;2.10;;;21.70;99.90;;;;;;5023234;28;20026;-90
2022/08/03 06:09:40;;;;;;;2.90;1.90;;;21.80;99.90;;;;;;5026342;28;20105;-90
2022/08/03 06:12:06;;;;;;;3.05;2.00;;;21.90;99.90;;;;;;5031104;28;20087;-90
2022/08/03 06:14:32;;;;;;;7.00;1.90;;;22.10;99.90;;;;;;5023773;28;20022;-90
2022/08/03 06:16:58;;;;;;;2.47;1.83;;;22.20;99.90;;;;;;5016116;28;20115;-90
2022/08/03 06:19:24;;;;;;;3.17;2.08;;;22.30;99.90;;;;;;5008163;28;20475;-90
2022/08/03 06:21:50;;;;;;;1.80;1.70;;;22.50;99.90;;;;;;5027918;28;20106;-91
2022/08/03 06:24:15;;;;;;;2.35;2.15;;;22.60;99.90;;;;;;5021837;28;20069;-90
2022/08/03 06:26:41;;;;;;;2.10;1.70;;;22.70;99.90;;;;;;5015135;28;20045;-90
2022/08/03 06:29:07;;;;;;;1.90;1.50;;;22.70;99.90;;;;;;5014730;28;20026;-89
2022/08/03 06:31:33;;;;;;;3.08;1.80;;;22.80;99.90;;;;;;5022898;28;20025;-89
2022/08/03 06:33:59;;;;;;;2.38;1.85;;;22.90;99.90;;;;;;5027395;28;20037;-90
2022/08/03 06:36:30;;;;;;;4.68;1.90;;;23.00;99.90;;;;;;5026530;28;20030;-91
2022/08/03 06:38:57;;;;;;;3.03;1.90;;;23.20;99.90;;;;;;5005202;28;20037;-91
2022/08/03 06:41:24;;;;;;;3.20;1.88;;;23.30;99.90;;;;;;5014895;28;20022;-89
2022/08/03 06:44:12;;;;;;;6.53;2.08;;;23.30;99.90;;;;;;5018063;28;20033;-89
2022/08/03 06:46:38;;;;;;;3.08;1.42;;;23.40;99.90;;;;;;5024571;28;20519;-89
2022/08/03 06:49:04;;;;;;;2.63;1.85;;;23.50;99.90;;;;;;5019576;28;20071;-90
2022/08/03 06:51:29;;;;;;;2.47;1.73;;;23.60;99.90;;;;;;5020660;28;20117;-89
2022/08/03 06:53:55;;;;;;;5.75;1.67;;;23.60;99.90;;;;;;5025560;28;20037;-89
2022/08/03 06:56:21;;;;;;;2.78;1.80;;;23.70;99.90;;;;;;5022671;28;20039;-90
2022/08/03 06:58:47;;;;;;;5.57;2.05;;;23.70;99.90;;;;;;5013558;28;20025;-89
2022/08/03 07:01:13;;;;;;;3.00;1.90;;;23.80;99.90;;;;;;5015131;28;20469;-92
2022/08/03 07:03:39;;;;;;;2.15;1.70;;;23.90;99.90;;;;;;5026050;28;20029;-89
2022/08/03 07:06:06;;;;;;;2.30;1.63;;;23.90;99.90;;;;;;5009707;28;20033;-89
2022/08/03 07:08:32;;;;;;;2.25;1.50;;;23.90;99.90;;;;;;5004169;28;20696;-89
2022/08/03 07:10:57;;;;;;;3.50;1.95;;;24.00;99.90;;;;;;5018844;28;20117;-89
2022/08/03 07:13:23;;;;;;;5.30;2.05;;;24.10;99.90;;;;;;5032711;28;20362;-89
2022/08/03 07:15:49;;;;;;;3.75;2.10;;;24.10;99.90;;;;;;5013015;28;20030;-90
2022/08/03 07:18:14;;;;;;;1.80;1.70;;;24.20;99.90;;;;;;5018377;28;20022;-89
2022/08/03 07:20:41;;;;;;;10.90;2.17;;;24.30;99.90;;;;;;5015865;28;20113;-89
2022/08/03 07:23:06;;;;;;;2.90;2.13;;;24.30;99.90;;;;;;5025064;28;20030;-89
2022/08/03 07:25:32;;;;;;;2.15;1.90;;;24.40;99.90;;;;;;5027488;28;20384;-91
2022/08/03 07:27:58;;;;;;;2.33;1.95;;;24.40;99.90;;;;;;5014069;28;20121;-89
2022/08/03 07:30:23;;;;;;;8.05;2.05;;;24.50;99.90;;;;;;5027961;28;20033;-89
2022/08/03 07:32:49;;;;;;;2.88;2.25;;;24.60;99.80;;;;;;5010626;28;20065;-90
2022/08/03 07:35:15;;;;;;;3.67;1.90;;;24.60;99.90;;;;;;5011096;28;20069;-89
2022/08/03 07:37:40;;;;;;;4.28;1.90;;;24.60;99.90;;;;;;5007979;28;20527;-89
2022/08/03 07:40:07;;;;;;;2.10;1.80;;;24.70;99.80;;;;;;5006015;28;20026;-89
2022/08/03 07:42:32;;;;;;;4.18;1.85;;;24.80;99.90;;;;;;5006030;28;20033;-90
2022/08/03 07:44:58;;;;;;;2.88;2.05;;;24.80;99.80;;;;;;5029716;28;21453;-89
2022/08/03 07:47:27;;;;;;;4.18;2.40;;;24.90;99.90;;;;;;5015761;28;20026;-90
2022/08/03 07:49:53;;;;;;;4.75;2.10;;;25.00;99.90;;;;;;4999161;28;20033;-89
2022/08/03 07:55:05;;;;;;;3.25;2.10;;;25.20;99.70;;;;;;5029367;28;20026;-91
2022/08/03 07:57:31;;;;;;;3.53;1.90;;;25.30;98.80;;;;;;5012871;28;20169;-91
2022/08/03 07:59:57;;;;;;;3.20;1.98;;;25.30;98.80;;;;;;5023747;28;20056;-90
2022/08/03 08:02:23;;;;;;;7.50;2.22;;;25.30;99.60;;;;;;5008845;28;20033;-91
2022/08/03 08:04:48;;;;;;;2.42;1.95;;;25.40;99.60;;;;;;5021051;28;20529;-90
2022/08/03 08:07:14;;;;;;;5.05;2.40;;;25.40;99.90;;;;;;5010787;28;20038;-91
2022/08/03 08:09:40;;;;;;;3.85;2.20;;;25.50;99.10;;;;;;4997429;28;20029;-90
2022/08/03 08:12:07;;;;;;;3.05;2.17;;;25.50;99.30;;;;;;5001215;28;20030;-90
2022/08/03 08:14:33;;;;;;;2.33;1.95;;;25.60;98.70;;;;;;5026782;28;20096;-90
2022/08/03 08:16:59;;;;;;;3.45;1.90;;;25.70;99.30;;;;;;5029084;28;20064;-91
2022/08/03 08:19:24;;;;;;;2.75;2.47;;;26.10;98.30;;;;;;5016163;28;20061;-89
2022/08/03 08:22:31;;;;;;;2.78;2.05;;;27.50;97.60;;;;;;4998587;28;20116;-90
2022/08/03 08:24:58;;;;;;;5.53;2.03;;;29.60;94.80;;;;;;5031141;28;20041;-91
2022/08/03 08:27:24;;;;;;;6.35;1.90;;;31.60;91.30;;;;;;5025163;28;20112;-91
2022/08/03 08:29:49;;;;;;;3.38;1.98;;;32.60;85.60;;;;;;5021235;28;20056;-90
2022/08/03 08:32:15;;;;;;;3.22;2.17;;;32.60;83.40;;;;;;5031817;28;20060;-90
2022/08/03 08:34:41;;;;;;;2.50;1.67;;;33.50;79.00;;;;;;5000443;28;20120;-89
2022/08/03 08:37:07;;;;;;;3.05;1.83;;;34.10;75.30;;;;;;5014043;28;20028;-91
2022/08/03 08:39:32;;;;;;;11.85;2.28;;;34.60;70.70;;;;;;5009634;28;20117;-90
2022/08/03 08:41:58;;;;;;;4.55;1.95;;;34.00;69.70;;;;;;5024884;28;20508;-90
2022/08/03 08:44:24;;;;;;;3.08;1.77;;;33.60;68.40;;;;;;5025998;28;20431;-90
2022/08/03 08:46:54;;;;;;;3.38;2.20;;;33.70;68.50;;;;;;5028900;28;20029;-89
2022/08/03 08:49:23;;;;;;;2.67;1.67;;;33.60;66.30;;;;;;5017294;28;20541;-91
2022/08/03 08:51:51;;;;;;;2.38;1.55;;;33.10;67.40;;;;;;5008782;28;20033;-89
2022/08/03 08:54:20;;;;;;;7.82;2.10;;;32.80;67.60;;;;;;5015135;28;20116;-90
2022/08/03 08:56:47;;;;;;;3.50;2.15;;;33.70;66.90;;;;;;4999031;28;20025;-89
2022/08/03 08:59:13;;;;;;;2.22;1.88;;;34.80;64.60;;;;;;5011404;28;20064;-89
2022/08/03 09:01:39;;;;;;;4.78;1.90;;;35.20;62.20;;;;;;5018866;28;20061;-92
2022/08/03 09:04:06;;;;;;;1.88;1.77;;;35.40;61.70;;;;;;5005534;28;20057;-89
2022/08/03 09:06:32;;;;;;;3.10;1.83;;;35.30;60.10;;;;;;5019038;28;20110;-89
2022/08/03 09:08:57;;;;;;;6.25;1.90;;;35.00;59.70;;;;;;5019586;28;20174;-89
2022/08/03 09:11:23;;;;;;;2.55;1.85;;;34.90;59.60;;;;;;5010964;28;20026;-89
2022/08/03 09:13:49;;;;;;;3.72;1.83;;;34.20;61.70;;;;;;5009295;28;20474;-90
2022/08/03 09:16:17;;;;;;;5.95;1.80;;;34.10;60.20;;;;;;5016442;28;20057;-89
2022/08/03 09:18:52;;;;;;;3.53;1.75;;;34.40;62.20;;;;;;5021246;28;20056;-90
2022/08/03 09:21:28;;;;;;;4.85;2.28;;;35.00;59.70;;;;;;5029097;28;20802;-89
2022/08/03 09:23:55;;;;;;;6.65;1.90;;;34.60;60.10;;;;;;5000629;28;20489;-89
2022/08/03 09:26:28;;;;;;;3.42;1.90;;;35.00;59.20;;;;;;5008897;28;20406;-90
2022/08/03 09:29:00;;;;;;;7.82;1.83;;;35.40;57.80;;;;;;5014178;28;20022;-91
2022/08/03 09:31:36;;;;;;;4.60;1.95;;;36.00;57.60;;;;;;5013672;28;20030;-90
2022/08/03 09:34:18;;;;;;;2.28;1.77;;;36.00;57.40;;;;;;5019272;28;20589;-90
2022/08/03 09:36:46;;;;;;;6.32;1.80;;;36.50;56.90;;;;;;5006743;28;20026;-92
2022/08/03 09:39:20;;;;;;;3.47;1.80;;;37.30;56.00;;;;;;5003205;28;20029;-90
2022/08/03 09:42:02;;;;;;;4.82;2.03;;;37.10;56.30;;;;;;5019869;28;20042;-90
2022/08/03 09:44:42;;;;;;;2.47;1.60;;;36.50;56.50;;;;;;5008406;28;20041;-91
2022/08/03 09:47:09;;;;;;;2.35;1.77;;;36.20;56.70;;;;;;4998873;28;20389;-91
2022/08/03 09:49:36;;;;;;;6.05;1.70;;;36.20;57.40;;;;;;5018784;28;20041;-90
2022/08/03 09:52:15;;;;;;;2.88;1.75;;;35.70;56.80;;;;;;5003586;28;20061;-89
2022/08/03 09:54:42;;;;;;;9.10;1.70;;;34.90;58.50;;;;;;5008164;28;20026;-90
2022/08/03 09:57:19;;;;;;;2.60;2.20;;;34.60;59.00;;;;;;5005931;28;20684;-90
2022/08/03 09:59:45;;;;;;;2.10;1.80;;;35.10;59.70;;;;;;5010489;28;20064;-92
2022/08/03 10:02:23;;;;;;;5.10;2.10;;;34.60;60.80;;;;;;5013620;28;20737;-91
2022/08/03 10:04:51;;;;;;;2.78;1.83;;;34.30;61.10;;;;;;5004622;28;20500;-89
2022/08/03 10:07:18;;;;;;;2.58;1.80;;;33.80;61.10;;;;;;5022018;28;20033;-90
2022/08/03 10:09:59;;;;;;;1.88;1.60;;;33.70;62.70;;;;;;5004521;28;20393;-89
2022/08/03 10:12:25;;;;;;;2.30;1.95;;;33.90;62.70;;;;;;5020562;28;20037;-90
2022/08/03 10:14:52;;;;;;;4.97;1.65;;;33.60;61.20;;;;;;5020796;28;20152;-90
2022/08/03 10:17:19;;;;;;;3.33;2.10;;;33.60;61.50;;;;;;5016396;28;20133;-90
2022/08/03 10:19:45;;;;;;;2.38;1.70;;;32.70;64.40;;;;;;5003265;28;20022;-89
2022/08/03 10:22:26;;;;;;;5.72;2.92;;;32.00;66.70;;;;;;5014032;28;20045;-90
2022/08/03 10:25:05;;;;;;;3.25;2.13;;;31.90;69.50;;;;;;5032304;28;20508;-90
2022/08/03 10:27:37;;;;;;;4.57;1.90;;;32.30;68.30;;;;;;5011061;28;20136;-91
2022/08/03 10:30:08;;;;;;;4.60;2.25;;;32.80;66.20;;;;;;5016618;28;20044;-92
2022/08/03 10:32:54;;;;;;;2.35;2.00;;;32.80;64.40;;;;;;5022800;28;20034;-89
2022/08/03 10:35:22;;;;;;;6.03;1.83;;;32.50;64.90;;;;;;5002832;28;20037;-90
2022/08/03 10:37:53;;;;;;;2.67;2.00;;;33.10;64.70;;;;;;5002649;28;20022;-90
2022/08/03 10:40:21;;;;;;;3.85;2.10;;;33.10;63.10;;;;;;5004888;28;20022;-90
2022/08/03 10:42:50;;;;;;;2.60;1.88;;;33.50;61.70;;;;;;5002364;28;20041;-90
2022/08/03 10:45:26;;;;;;;2.15;1.90;;;33.50;61.50;;;;;;5008195;28;20033;-89
2022/08/03 10:47:54;;;;;;;4.55;2.00;;;33.90;60.90;;;;;;5000831;28;20040;-91
2022/08/03 10:50:23;;;;;;;3.10;2.55;;;34.60;61.10;;;;;;5008769;28;20030;-91
2022/08/03 10:52:58;;;;;;;2.72;1.88;;;34.90;59.60;;;;;;5029721;28;20108;-90
2022/08/03 10:58:36;;;;;;;2.47;1.70;;;34.80;58.60;;;;;;5016991;28;20531;-91
2022/08/03 11:01:07;;;;;;;3.15;1.98;;;34.20;58.90;;;;;;5026988;28;20492;-90
2022/08/03 11:03:54;;;;;;;2.03;1.60;;;34.40;60.50;;;;;;5012434;28;20593;-91
2022/08/03 11:06:24;;;;;;;3.08;1.65;;;34.50;59.00;;;;;;5015207;28;20029;-90
2022/08/03 11:09:08;;;;;;;5.88;2.00;;;34.10;58.50;;;;;;5029857;28;20026;-91
2022/08/03 11:11:42;;;;;;;2.60;1.50;;;34.00;59.00;;;;;;5027561;28;20393;-91
2022/08/03 11:14:19;;;;;;;4.10;1.73;;;34.00;59.30;;;;;;5000670;28;20033;-91
2022/08/03 11:17:04;;;;;;;3.35;1.95;;;34.30;58.70;;;;;;5003527;28;20496;-92
2022/08/03 11:19:46;;;;;;;2.90;1.60;;;34.60;58.30;;;;;;5014589;28;20029;-90
2022/08/03 11:22:14;;;;;;;1.60;1.50;;;34.50;57.80;;;;;;5021420;28;20040;-90
2022/08/03 11:24:40;;;;;;;2.85;1.70;;;34.70;57.80;;;;;;5026773;28;20029;-92
2022/08/03 11:27:22;;;;;;;3.42;1.60;;;34.90;57.60;;;;;;5015857;28;20080;-90
2022/08/03 11:29:57;;;;;;;6.10;2.00;;;34.80;56.90;;;;;;5026918;28;20475;-90
2022/08/03 11:32:45;;;;;;;4.45;1.80;;;35.10;58.40;;;;;;5027064;28;20034;-91
2022/08/03 11:35:29;;;;;;;2.03;1.63;;;35.80;58.10;;;;;;5002954;28;20093;-90
2022/08/03 11:37:58;;;;;;;2.50;1.35;;;35.90;57.00;;;;;;5000487;28;20385;-90
2022/08/03 11:40:41;;;;;;;7.85;2.08;;;36.10;56.00;;;;;;5027099;28;20833;-90
2022/08/03 11:43:27;;;;;;;7.60;2.10;;;36.70;55.50;;;;;;5030030;28;20132;-90
2022/08/03 11:46:16;;;;;;;2.17;1.50;;;35.90;54.30;;;;;;5009566;28;20509;-90
2022/08/03 11:48:45;;;;;;;3.63;1.38;;;36.10;54.00;;;;;;5033336;28;20483;-90
2022/08/03 11:51:25;;;;;;;2.20;1.40;;;36.40;53.80;;;;;;5014918;28;20602;-90
2022/08/03 11:54:10;;;;;;;7.00;1.63;;;36.60;53.60;;;;;;5006890;28;20038;-91
2022/08/03 11:56:47;;;;;;;2.97;1.70;;;36.60;54.00;;;;;;5009692;28;20022;-89
2022/08/03 11:59:13;;;;;;;1.75;1.40;;;36.10;54.40;;;;;;5006052;28;20461;-90
2022/08/03 12:01:39;;;;;;;6.68;2.05;;;35.10;53.20;;;;;;5026496;28;20029;-89
2022/08/03 12:04:06;;;;;;;2.60;1.52;;;34.20;54.40;;;;;;5028404;28;20062;-90
2022/08/03 12:06:53;;;;;;;1.55;1.30;;;33.50;54.50;;;;;;5028281;28;20021;-90
2022/08/03 12:09:20;;;;;;;3.03;1.02;;;34.00;54.10;;;;;;5011198;28;20029;-91
2022/08/03 12:11:51;;;;;;;2.13;0.80;;;34.40;54.10;;;;;;5024406;28;20046;-90
2022/08/03 12:14:19;;;;;;;2.03;1.33;;;34.50;52.10;;;;;;5025359;28;20033;-89
2022/08/03 12:16:48;;;;;;;2.88;1.00;;;34.60;52.00;;;;;;5013804;28;20512;-89
2022/08/03 12:19:15;;;;;;;7.70;1.60;;;34.40;53.00;;;;;;5024616;28;20029;-89
2022/08/03 12:21:50;;;;;;;4.22;1.40;;;34.10;55.10;;;;;;5015075;28;20014;-90
2022/08/03 12:24:16;;;;;;;1.98;1.35;;;33.60;54.90;;;;;;5006209;28;20022;-91
2022/08/03 12:26:50;;;;;;;2.53;1.33;;;33.60;54.10;;;;;;5000426;28;20370;-90
2022/08/03 12:33:13;;;;;;;1.95;1.13;;;33.80;54.80;;;;;;5030446;28;20033;-89
2022/08/03 12:35:39;;;;;;;2.72;1.40;;;34.00;52.60;;;;;;5014264;28;20084;-90
2022/08/03 12:38:05;;;;;;;6.25;1.20;;;34.00;54.10;;;;;;5009058;28;20053;-89
2022/08/03 12:40:31;;;;;;;3.38;1.30;;;33.90;53.30;;;;;;5013167;28;20029;-91
2022/08/03 12:42:57;;;;;;;3.67;1.25;;;34.10;53.30;;;;;;5022614;28;20056;-90
2022/08/03 12:46:00;;;;;;;1.40;1.30;;;33.80;52.70;;;;;;5014015;28;20385;-90
2022/08/03 12:48:26;;;;;;;0.88;0.88;;;33.60;52.40;;;;;;5014387;28;20033;-90
2022/08/03 12:50:51;;;;;;;1.60;1.30;;;34.30;52.70;;;;;;5012803;28;20083;-89
2022/08/03 12:53:27;;;;;;;1.55;1.27;;;34.50;53.70;;;;;;5009309;28;20073;-90
2022/08/03 12:56:01;;;;;;;1.33;1.23;;;34.40;54.20;;;;;;5017714;28;20104;-90
2022/08/03 12:58:36;;;;;;;4.38;1.88;;;34.80;54.80;;;;;;5022710;28;20097;-90
2022/08/03 13:01:03;;;;;;;3.90;1.55;;;35.10;53.70;;;;;;5016340;28;20041;-91
2022/08/03 13:03:39;;;;;;;1.88;1.30;;;35.30;52.70;;;;;;5007578;28;20083;-91
2022/08/03 13:06:29;;;;;;;3.20;1.50;;;35.50;52.30;;;;;;5004351;28;20033;-91
2022/08/03 13:09:04;;;;;;;1.83;1.45;;;36.10;52.40;;;;;;5012023;28;20030;-90
2022/08/03 13:11:30;;;;;;;5.18;1.20;;;36.60;51.80;;;;;;5028764;28;20041;-90
2022/08/03 13:13:55;;;;;;;1.77;1.45;;;37.00;51.50;;;;;;5021517;28;20041;-89
2022/08/03 13:16:21;;;;;;;2.40;1.10;;;37.10;51.10;;;;;;5008018;28;20029;-90
2022/08/03 13:18:48;;;;;;;3.10;1.35;;;36.10;51.00;;;;;;5016152;28;20022;-90